Time;durP1;ratioP1;P1;durP2;ratioP2;P2;SDS_P1;SDS_P2;PMS_P1;PMS_P2;Temp;Humidity;BMP_temperature;BMP_pressure;BME280_temperature;BME280_humidity;BME280_pressure;Samples;Min_cycle;Max_cycle;Signal;HPM_P1;HPM_P2
2023/04/03 00:00:00;;;;;;;8.70;2.03;;;4.50;99.90;;;;;;5014748;28;20050;-64
2023/04/03 00:02:31;;;;;;;8.32;2.13;;;4.40;99.90;;;;;;4995912;28;20081;-64
2023/04/03 00:04:58;;;;;;;6.35;1.90;;;4.50;99.90;;;;;;4994266;28;20137;-65
2023/04/03 00:07:25;;;;;;;7.72;1.95;;;4.40;99.90;;;;;;4995823;28;20085;-64
2023/04/03 00:09:52;;;;;;;7.90;1.45;;;4.40;99.90;;;;;;5004533;28;20054;-64
2023/04/03 00:12:19;;;;;;;9.07;2.15;;;4.30;99.90;;;;;;5014239;28;20056;-63
2023/04/03 00:14:45;;;;;;;7.88;2.03;;;4.30;99.90;;;;;;5014894;28;20068;-64
2023/04/03 00:17:12;;;;;;;12.90;2.60;;;4.30;99.90;;;;;;5041214;28;20503;-64
2023/04/03 00:19:40;;;;;;;6.20;2.00;;;4.30;99.90;;;;;;5034807;28;20092;-64
2023/04/03 00:22:06;;;;;;;10.27;1.90;;;4.30;99.90;;;;;;5034715;28;20045;-64
2023/04/03 00:24:33;;;;;;;10.57;1.98;;;4.20;99.90;;;;;;5034308;28;20037;-64
2023/04/03 00:27:00;;;;;;;11.57;2.17;;;4.20;99.90;;;;;;5034277;28;20099;-63
2023/04/03 00:29:27;;;;;;;10.98;1.60;;;4.20;99.90;;;;;;5034135;28;20041;-63
2023/04/03 00:31:54;;;;;;;7.35;2.22;;;4.20;99.90;;;;;;5033373;28;20562;-64
2023/04/03 00:34:20;;;;;;;17.85;2.60;;;4.10;99.90;;;;;;5042154;28;20087;-64
2023/04/03 00:36:47;;;;;;;11.32;2.28;;;4.10;99.90;;;;;;5032975;28;20053;-64
2023/04/03 00:39:14;;;;;;;11.10;2.10;;;4.10;99.90;;;;;;5046477;28;20076;-64
2023/04/03 00:41:41;;;;;;;12.43;2.20;;;4.00;99.90;;;;;;5053410;28;20041;-64
2023/04/03 00:44:07;;;;;;;9.90;2.15;;;4.00;99.90;;;;;;5053520;28;20103;-63
2023/04/03 00:46:35;;;;;;;6.57;1.95;;;3.90;99.90;;;;;;5052235;28;20040;-64
2023/04/03 00:49:01;;;;;;;7.28;2.25;;;4.00;99.90;;;;;;5052190;28;20033;-64
2023/04/03 00:51:28;;;;;;;11.88;2.10;;;3.90;99.90;;;;;;5053283;28;20041;-64
2023/04/03 00:53:55;;;;;;;11.98;2.65;;;3.90;99.90;;;;;;5053140;28;20041;-63
2023/04/03 00:56:22;;;;;;;13.55;2.47;;;3.90;99.90;;;;;;5052753;28;20506;-63
2023/04/03 00:58:49;;;;;;;9.65;2.30;;;3.90;99.90;;;;;;5051700;28;20076;-63
2023/04/03 01:01:15;;;;;;;10.52;3.13;;;3.80;99.90;;;;;;5053349;28;20041;-64
2023/04/03 01:03:42;;;;;;;11.07;2.63;;;3.80;99.90;;;;;;5053130;28;20114;-64
2023/04/03 01:06:10;;;;;;;9.45;2.40;;;3.80;99.90;;;;;;5051662;28;20099;-63
2023/04/03 01:08:37;;;;;;;12.43;2.85;;;3.70;99.90;;;;;;5052288;28;20037;-64
2023/04/03 01:11:04;;;;;;;8.02;2.25;;;3.70;99.90;;;;;;5052930;28;20033;-64
2023/04/03 01:13:31;;;;;;;9.10;2.20;;;3.70;99.90;;;;;;5051552;28;20068;-65
2023/04/03 01:15:58;;;;;;;21.70;3.00;;;3.60;99.90;;;;;;5051519;28;20076;-63
2023/04/03 01:18:25;;;;;;;8.55;2.10;;;3.60;99.90;;;;;;5052780;28;20037;-64
2023/04/03 01:20:52;;;;;;;10.82;2.55;;;3.60;99.90;;;;;;5051634;28;20076;-64
2023/04/03 01:23:18;;;;;;;10.93;2.63;;;3.60;99.90;;;;;;5050932;28;20047;-63
2023/04/03 01:25:45;;;;;;;10.65;2.45;;;3.60;99.90;;;;;;5052581;28;20041;-65
2023/04/03 01:28:13;;;;;;;11.65;2.22;;;3.60;99.90;;;;;;5052735;28;20124;-63
2023/04/03 01:30:40;;;;;;;10.73;2.90;;;3.50;99.90;;;;;;5051456;28;20052;-64
2023/04/03 01:33:07;;;;;;;10.55;2.45;;;3.50;99.90;;;;;;5052512;28;20399;-63
2023/04/03 01:35:34;;;;;;;8.95;2.40;;;3.50;99.90;;;;;;5051421;28;20474;-63
2023/04/03 01:38:01;;;;;;;12.52;2.95;;;3.50;99.90;;;;;;5040471;28;20136;-64
2023/04/03 01:40:28;;;;;;;10.15;2.83;;;3.50;99.90;;;;;;5032194;28;20042;-64
2023/04/03 01:42:55;;;;;;;11.68;2.85;;;3.50;99.90;;;;;;5033468;28;20049;-65
2023/04/03 01:45:22;;;;;;;13.43;2.97;;;3.50;99.90;;;;;;5032163;28;20055;-64
2023/04/03 01:47:49;;;;;;;8.15;2.97;;;3.50;99.90;;;;;;5032215;28;20087;-64
2023/04/03 01:50:16;;;;;;;9.35;2.70;;;3.50;99.90;;;;;;5032209;28;20425;-63
2023/04/03 01:52:44;;;;;;;8.93;2.50;;;3.40;99.90;;;;;;5015948;28;20038;-63
2023/04/03 01:55:11;;;;;;;14.80;2.80;;;3.40;99.90;;;;;;5042820;28;20044;-64
2023/04/03 01:57:38;;;;;;;8.60;2.38;;;3.40;99.90;;;;;;5051199;28;20075;-63
2023/04/03 02:00:05;;;;;;;13.02;2.88;;;3.40;99.90;;;;;;5051054;28;20095;-64
2023/04/03 02:02:38;;;;;;;14.40;2.63;;;3.40;99.90;;;;;;5052596;28;20122;-65
2023/04/03 02:05:05;;;;;;;14.00;3.08;;;3.40;99.90;;;;;;5051080;28;20064;-63
2023/04/03 02:07:32;;;;;;;10.63;2.65;;;3.30;99.90;;;;;;5051173;28;20077;-64
2023/04/03 02:09:58;;;;;;;9.02;2.20;;;3.30;99.90;;;;;;5051262;28;20037;-63
2023/04/03 02:12:25;;;;;;;9.90;2.60;;;3.30;99.90;;;;;;5051090;28;20041;-64
2023/04/03 02:14:52;;;;;;;10.65;2.47;;;3.20;99.90;;;;;;5051953;28;20053;-63
2023/04/03 02:17:19;;;;;;;9.82;2.65;;;3.20;99.90;;;;;;5052355;28;20041;-64
2023/04/03 02:19:46;;;;;;;13.93;2.40;;;3.10;99.90;;;;;;5050992;28;20060;-64
2023/04/03 02:22:13;;;;;;;8.85;2.42;;;3.10;99.90;;;;;;5052273;28;20041;-64
2023/04/03 02:24:41;;;;;;;8.00;2.53;;;3.00;99.90;;;;;;5050878;28;20049;-64
2023/04/03 02:27:07;;;;;;;9.27;2.85;;;3.00;99.90;;;;;;5052135;28;20107;-64
2023/04/03 02:29:34;;;;;;;8.70;2.78;;;2.90;99.90;;;;;;5051941;28;20427;-64
2023/04/03 02:32:01;;;;;;;9.07;2.53;;;2.90;99.90;;;;;;5050940;28;20033;-64
2023/04/03 02:34:29;;;;;;;9.30;2.42;;;2.80;99.90;;;;;;5050812;28;20041;-64
2023/04/03 02:36:58;;;;;;;5.90;2.60;;;2.80;99.90;;;;;;5054630;28;20037;-63
2023/04/03 02:39:26;;;;;;;10.68;2.50;;;2.90;99.90;;;;;;5054600;28;20057;-63
2023/04/03 02:41:54;;;;;;;12.68;2.88;;;2.80;99.90;;;;;;5055672;28;20044;-63
2023/04/03 02:44:24;;;;;;;9.20;3.20;;;2.80;99.90;;;;;;5054363;28;20140;-63
2023/04/03 02:46:52;;;;;;;13.52;2.58;;;2.80;99.90;;;;;;5054286;28;20530;-63
2023/04/03 02:49:18;;;;;;;10.70;3.50;;;2.80;99.90;;;;;;5055647;28;20033;-65
2023/04/03 02:51:45;;;;;;;10.75;2.90;;;2.70;99.90;;;;;;5054343;28;20052;-63
2023/04/03 02:54:12;;;;;;;11.13;3.15;;;2.70;99.90;;;;;;5054157;28;20048;-63
2023/04/03 02:56:44;;;;;;;7.82;2.78;;;2.60;99.90;;;;;;5054373;28;20508;-64
2023/04/03 02:59:10;;;;;;;9.10;2.70;;;2.60;99.90;;;;;;5055400;28;20051;-63
2023/04/03 03:01:39;;;;;;;10.35;2.83;;;2.60;99.90;;;;;;5054061;28;20403;-64
2023/04/03 03:04:06;;;;;;;10.75;3.33;;;2.60;99.90;;;;;;5055272;28;20443;-63
2023/04/03 03:06:32;;;;;;;9.15;2.70;;;2.60;99.90;;;;;;5055240;28;20036;-63
2023/04/03 03:08:59;;;;;;;9.13;2.80;;;2.50;99.90;;;;;;5055153;28;20048;-63
2023/04/03 03:11:26;;;;;;;13.32;3.30;;;2.50;99.90;;;;;;5053996;28;20072;-64
2023/04/03 03:13:53;;;;;;;11.07;3.50;;;2.50;99.90;;;;;;5053729;28;20052;-64
2023/04/03 03:16:20;;;;;;;10.02;2.83;;;2.50;99.90;;;;;;5055113;28;20071;-63
2023/04/03 03:18:46;;;;;;;13.27;3.85;;;2.40;99.90;;;;;;5055002;28;20401;-63
2023/04/03 03:21:13;;;;;;;7.72;2.95;;;2.40;99.90;;;;;;5053679;28;20045;-64
2023/04/03 03:23:40;;;;;;;8.90;2.80;;;2.40;99.90;;;;;;5054828;28;20119;-64
2023/04/03 03:26:07;;;;;;;11.40;3.03;;;2.40;99.90;;;;;;5054824;28;20037;-63
2023/04/03 03:28:34;;;;;;;6.80;2.60;;;2.40;99.90;;;;;;5054964;28;20106;-63
2023/04/03 03:31:00;;;;;;;10.85;2.92;;;2.30;99.90;;;;;;5054871;28;20389;-63
2023/04/03 03:33:28;;;;;;;6.25;2.35;;;2.30;99.90;;;;;;5053545;28;20045;-64
2023/04/03 03:35:55;;;;;;;9.57;2.90;;;2.20;99.90;;;;;;5054740;28;20052;-64
2023/04/03 03:38:22;;;;;;;10.05;2.70;;;2.20;99.90;;;;;;5054640;28;20041;-63
2023/04/03 03:40:48;;;;;;;7.93;2.80;;;2.20;99.90;;;;;;5053424;28;20041;-63
2023/04/03 03:43:17;;;;;;;8.07;2.67;;;2.20;99.90;;;;;;5053178;28;20044;-63
2023/04/03 03:45:46;;;;;;;8.73;3.40;;;2.20;99.90;;;;;;5053330;28;20041;-63
2023/04/03 03:48:12;;;;;;;14.55;2.63;;;2.10;99.90;;;;;;5053710;28;20050;-63
2023/04/03 03:50:39;;;;;;;8.95;2.85;;;2.10;99.90;;;;;;5054475;28;20036;-63
2023/04/03 03:53:06;;;;;;;11.93;2.58;;;2.00;99.90;;;;;;5054355;28;20091;-63
2023/04/03 03:55:33;;;;;;;13.68;3.08;;;2.00;99.90;;;;;;5053044;28;20068;-63
2023/04/03 03:58:01;;;;;;;13.23;2.75;;;2.00;99.90;;;;;;5054274;28;20045;-64
2023/04/03 04:00:29;;;;;;;9.85;2.60;;;2.00;99.90;;;;;;5053063;28;20045;-63
2023/04/03 04:02:57;;;;;;;9.23;2.50;;;2.10;99.90;;;;;;5052877;28;20080;-64
2023/04/03 04:05:26;;;;;;;5.25;2.28;;;2.10;99.90;;;;;;5052929;28;20135;-64
2023/04/03 04:07:53;;;;;;;10.38;2.50;;;2.10;99.90;;;;;;5052923;28;20137;-64
2023/04/03 04:10:21;;;;;;;10.07;2.65;;;2.20;99.90;;;;;;5052943;28;20091;-63
2023/04/03 04:12:51;;;;;;;7.28;2.60;;;2.20;99.90;;;;;;5052693;28;20449;-63
2023/04/03 04:15:21;;;;;;;7.72;2.50;;;2.30;99.90;;;;;;5052752;28;20063;-64
2023/04/03 04:17:48;;;;;;;10.65;2.67;;;2.30;99.90;;;;;;5052664;28;20091;-63
2023/04/03 04:20:15;;;;;;;5.53;3.03;;;2.40;99.90;;;;;;5053929;28;20434;-63
2023/04/03 04:22:42;;;;;;;8.73;2.55;;;2.40;99.90;;;;;;5052574;28;20110;-64
2023/04/03 04:25:09;;;;;;;6.55;2.50;;;2.40;99.90;;;;;;5053806;28;20447;-64
2023/04/03 04:27:38;;;;;;;9.70;2.70;;;2.40;99.90;;;;;;5046371;28;20045;-64
2023/04/03 04:30:06;;;;;;;7.60;2.72;;;2.40;99.90;;;;;;5046173;28;20068;-64
2023/04/03 04:32:33;;;;;;;9.40;2.45;;;2.40;99.90;;;;;;5052355;28;20098;-64
2023/04/03 04:35:00;;;;;;;13.85;3.38;;;2.40;99.90;;;;;;5052186;28;20037;-64
2023/04/03 04:37:30;;;;;;;13.75;2.55;;;2.30;99.90;;;;;;5052676;28;20056;-63
2023/04/03 04:39:58;;;;;;;8.45;2.58;;;2.20;99.90;;;;;;5033130;28;20041;-64
2023/04/03 04:42:24;;;;;;;14.48;3.00;;;2.20;99.90;;;;;;5033086;28;20057;-64
2023/04/03 04:44:51;;;;;;;8.35;3.00;;;2.20;99.90;;;;;;5032706;28;20504;-64
2023/04/03 04:47:18;;;;;;;9.55;2.47;;;2.20;99.90;;;;;;5052457;28;20155;-64
2023/04/03 04:49:47;;;;;;;13.45;3.03;;;2.20;99.90;;;;;;5048954;28;20037;-64
2023/04/03 04:52:14;;;;;;;16.50;2.97;;;2.30;99.90;;;;;;5049279;28;20587;-63
2023/04/03 04:54:41;;;;;;;14.63;3.17;;;2.30;99.90;;;;;;5018596;28;20048;-63
2023/04/03 04:57:10;;;;;;;10.88;2.67;;;2.30;99.90;;;;;;5032738;28;20057;-64
2023/04/03 04:59:38;;;;;;;9.82;2.42;;;2.30;99.90;;;;;;5045662;28;20045;-63
2023/04/03 05:02:06;;;;;;;9.70;2.80;;;2.30;99.90;;;;;;5052395;28;20049;-63
2023/04/03 05:04:34;;;;;;;14.32;3.40;;;2.30;99.90;;;;;;5052047;28;20037;-63
2023/04/03 05:07:07;;;;;;;7.35;2.50;;;2.40;99.90;;;;;;5052009;28;20049;-64
2023/04/03 05:09:35;;;;;;;10.70;3.45;;;2.50;99.90;;;;;;5051848;28;20045;-64
2023/04/03 05:12:03;;;;;;;11.02;2.50;;;2.50;99.90;;;;;;5051693;28;20522;-64
2023/04/03 05:14:36;;;;;;;8.63;2.80;;;2.60;99.90;;;;;;5051455;28;20156;-64
2023/04/03 05:17:06;;;;;;;11.98;3.85;;;2.60;99.90;;;;;;5051605;28;20178;-64
2023/04/03 05:19:36;;;;;;;7.40;2.63;;;2.60;99.90;;;;;;5051740;28;20131;-63
2023/04/03 05:22:05;;;;;;;9.70;3.08;;;2.70;99.90;;;;;;5051580;28;20048;-63
2023/04/03 05:24:32;;;;;;;10.30;2.78;;;2.80;99.90;;;;;;5052684;28;20068;-63
2023/04/03 05:27:00;;;;;;;7.07;2.47;;;2.80;99.90;;;;;;5052797;28;20041;-64
2023/04/03 05:29:28;;;;;;;8.55;2.90;;;2.90;99.90;;;;;;5051672;28;20040;-63
2023/04/03 05:31:56;;;;;;;9.55;2.72;;;2.90;99.90;;;;;;5052896;28;20040;-62
2023/04/03 05:34:24;;;;;;;8.55;3.13;;;2.90;99.90;;;;;;5051551;28;20077;-63
2023/04/03 05:36:53;;;;;;;10.63;3.17;;;3.00;99.90;;;;;;5051552;28;20053;-65
2023/04/03 05:39:22;;;;;;;12.10;2.88;;;3.00;99.90;;;;;;5051377;28;20615;-64
2023/04/03 05:41:49;;;;;;;14.30;3.40;;;3.00;99.90;;;;;;5051430;28;20103;-63
2023/04/03 05:44:15;;;;;;;12.40;3.20;;;3.00;99.90;;;;;;5051388;28;20044;-65
2023/04/03 05:46:44;;;;;;;11.15;3.40;;;3.00;99.90;;;;;;5051343;28;20052;-63
2023/04/03 05:49:11;;;;;;;8.65;3.35;;;3.10;99.90;;;;;;5052579;28;20033;-63
2023/04/03 05:51:39;;;;;;;11.07;3.63;;;3.10;99.90;;;;;;5051261;28;20041;-63
2023/04/03 05:54:17;;;;;;;9.90;2.90;;;3.10;99.90;;;;;;5051294;28;20076;-63
2023/04/03 05:56:44;;;;;;;6.80;3.10;;;3.10;99.90;;;;;;5037667;28;20064;-63
2023/04/03 05:59:11;;;;;;;7.82;3.33;;;3.10;99.90;;;;;;5031565;28;20076;-63
2023/04/03 06:01:39;;;;;;;8.88;3.65;;;3.20;99.90;;;;;;5031311;28;20115;-63
2023/04/03 06:04:08;;;;;;;7.97;3.03;;;3.20;99.90;;;;;;5043235;28;20045;-63
2023/04/03 06:06:36;;;;;;;9.68;3.78;;;3.20;99.90;;;;;;5051068;28;20045;-64
2023/04/03 06:09:03;;;;;;;10.90;3.63;;;3.30;99.90;;;;;;5052473;28;20499;-64
2023/04/03 06:11:30;;;;;;;10.00;2.97;;;3.40;99.90;;;;;;5055763;28;20037;-64
2023/04/03 06:13:57;;;;;;;8.05;3.30;;;3.40;99.90;;;;;;5054786;28;20558;-64
2023/04/03 06:16:24;;;;;;;9.73;3.42;;;3.50;99.90;;;;;;5056380;28;20048;-64
2023/04/03 06:18:51;;;;;;;13.02;3.22;;;3.50;99.90;;;;;;5056130;28;20072;-63
2023/04/03 06:21:18;;;;;;;10.50;3.05;;;3.60;99.90;;;;;;5055138;28;20375;-63
2023/04/03 06:23:45;;;;;;;9.27;2.92;;;3.70;99.90;;;;;;5056051;28;20083;-63
2023/04/03 06:26:12;;;;;;;10.65;3.50;;;3.70;99.90;;;;;;5049672;28;20057;-63
2023/04/03 06:28:39;;;;;;;14.45;3.40;;;3.70;99.90;;;;;;5036869;28;20496;-64
2023/04/03 06:31:06;;;;;;;11.60;3.22;;;3.80;99.90;;;;;;5036876;28;20095;-63
2023/04/03 06:33:32;;;;;;;9.95;3.22;;;3.80;99.90;;;;;;5036710;28;20137;-63
2023/04/03 06:35:59;;;;;;;8.65;3.28;;;3.80;99.90;;;;;;5035861;28;20041;-64
2023/04/03 06:38:26;;;;;;;7.47;3.78;;;3.80;99.90;;;;;;5035460;28;20067;-64
2023/04/03 06:40:53;;;;;;;10.00;3.13;;;3.90;99.90;;;;;;5036608;28;20447;-63
2023/04/03 06:43:20;;;;;;;11.15;3.40;;;3.90;99.90;;;;;;5036541;28;20116;-65
2023/04/03 06:45:50;;;;;;;10.15;2.83;;;3.80;99.90;;;;;;5036559;28;20051;-64
2023/04/03 06:48:17;;;;;;;7.68;3.10;;;3.80;99.90;;;;;;5036694;28;20088;-65
2023/04/03 06:50:44;;;;;;;8.05;2.95;;;3.80;99.90;;;;;;5036604;28;20124;-65
2023/04/03 06:53:11;;;;;;;8.30;2.92;;;3.90;99.90;;;;;;5036405;28;20045;-64
2023/04/03 06:55:38;;;;;;;9.10;3.53;;;3.90;99.90;;;;;;5049434;28;20037;-63
2023/04/03 06:58:05;;;;;;;8.95;2.97;;;4.00;99.90;;;;;;5043847;28;20492;-64
2023/04/03 07:00:32;;;;;;;8.93;3.30;;;4.00;99.90;;;;;;5040352;28;20075;-64
2023/04/03 07:02:59;;;;;;;10.88;3.05;;;4.10;99.90;;;;;;5044401;28;20124;-63
2023/04/03 07:05:26;;;;;;;12.77;4.82;;;4.20;99.90;;;;;;5041645;28;20396;-64
2023/04/03 07:07:53;;;;;;;9.07;3.88;;;4.30;99.90;;;;;;5049103;28;20045;-64
2023/04/03 07:10:20;;;;;;;13.07;3.60;;;4.40;99.90;;;;;;5045132;28;20036;-63
2023/04/03 07:12:47;;;;;;;10.80;3.58;;;4.50;99.90;;;;;;5042151;28;20504;-65
2023/04/03 07:15:14;;;;;;;10.50;3.85;;;4.50;99.90;;;;;;5040928;28;20133;-65
2023/04/03 07:17:41;;;;;;;15.30;3.88;;;4.40;99.90;;;;;;5053326;28;20542;-64
2023/04/03 07:20:08;;;;;;;13.13;3.70;;;4.40;99.90;;;;;;5044597;28;20057;-63
2023/04/03 07:22:34;;;;;;;9.85;3.53;;;4.40;99.90;;;;;;5052225;28;20407;-63
2023/04/03 07:25:02;;;;;;;10.45;3.70;;;4.40;99.90;;;;;;5054960;28;20045;-64
2023/04/03 07:27:29;;;;;;;15.57;3.38;;;4.40;99.90;;;;;;5054901;28;20041;-64
2023/04/03 07:29:56;;;;;;;11.02;3.58;;;4.40;99.90;;;;;;5054926;28;20072;-64
2023/04/03 07:32:22;;;;;;;11.52;3.72;;;4.50;99.90;;;;;;5053739;28;20068;-65
2023/04/03 07:34:49;;;;;;;11.88;3.65;;;4.60;99.90;;;;;;5054718;28;20112;-64
2023/04/03 07:37:17;;;;;;;12.98;3.92;;;4.70;99.90;;;;;;5054785;28;20049;-62
2023/04/03 07:39:44;;;;;;;11.93;4.00;;;4.90;99.90;;;;;;5044171;28;20045;-63
2023/04/03 07:42:12;;;;;;;10.35;3.60;;;5.00;99.90;;;;;;5035289;28;20077;-64
2023/04/03 07:44:39;;;;;;;10.60;3.70;;;5.20;99.90;;;;;;5035544;28;20446;-63
2023/04/03 07:47:05;;;;;;;16.00;3.70;;;5.20;99.90;;;;;;5038120;28;20049;-64
2023/04/03 07:49:32;;;;;;;11.35;4.00;;;5.20;99.90;;;;;;5036865;28;20128;-64
2023/04/03 07:51:59;;;;;;;11.93;3.78;;;5.20;99.90;;;;;;5035134;28;20033;-63
2023/04/03 07:54:26;;;;;;;10.73;3.63;;;5.20;99.90;;;;;;5051808;28;20428;-64
2023/04/03 07:56:53;;;;;;;17.60;4.53;;;5.20;99.90;;;;;;5052905;28;20396;-65
2023/04/03 07:59:20;;;;;;;11.93;3.90;;;5.20;99.90;;;;;;5054031;28;20095;-64
2023/04/03 08:01:47;;;;;;;13.93;3.80;;;5.20;99.90;;;;;;5054066;28;20441;-64
2023/04/03 08:04:13;;;;;;;8.88;4.20;;;5.20;99.90;;;;;;5050802;28;20123;-64
2023/04/03 08:06:40;;;;;;;12.60;4.10;;;5.30;99.90;;;;;;5038652;28;20401;-65
2023/04/03 08:09:13;;;;;;;14.98;4.53;;;5.30;99.90;;;;;;5037544;28;20045;-62
2023/04/03 08:11:39;;;;;;;10.60;3.70;;;5.30;99.90;;;;;;5046114;28;20037;-62
2023/04/03 08:14:06;;;;;;;15.85;4.50;;;5.40;99.90;;;;;;5053545;28;20080;-63
2023/04/03 08:16:33;;;;;;;18.98;4.63;;;5.40;99.90;;;;;;5043595;28;20037;-64
2023/04/03 08:19:00;;;;;;;14.20;4.63;;;5.50;99.90;;;;;;5036757;28;20051;-62
2023/04/03 08:21:28;;;;;;;17.80;6.18;;;5.50;99.90;;;;;;5037486;28;20378;-62
2023/04/03 08:23:56;;;;;;;15.90;5.82;;;5.60;99.90;;;;;;5036500;28;20408;-63
2023/04/03 08:26:22;;;;;;;13.23;5.07;;;5.60;99.90;;;;;;5053328;28;20076;-62
2023/04/03 08:28:49;;;;;;;12.82;4.78;;;5.70;99.90;;;;;;5053356;28;20037;-62
2023/04/03 08:31:18;;;;;;;16.27;4.90;;;5.80;99.90;;;;;;5053532;28;20033;-62
2023/04/03 08:33:45;;;;;;;15.15;5.20;;;5.80;99.90;;;;;;5036996;28;20039;-63
2023/04/03 08:36:11;;;;;;;15.45;5.15;;;5.90;99.90;;;;;;5034152;28;20095;-63
2023/04/03 08:38:38;;;;;;;17.20;5.28;;;6.00;99.90;;;;;;5034143;28;20047;-62
2023/04/03 08:41:05;;;;;;;13.93;5.03;;;6.00;99.90;;;;;;5034132;28;20116;-64
2023/04/03 08:43:32;;;;;;;13.50;5.03;;;6.10;99.90;;;;;;5033983;28;20037;-62
2023/04/03 08:45:58;;;;;;;9.82;4.25;;;6.20;99.90;;;;;;5034043;28;20493;-62
2023/04/03 08:48:25;;;;;;;16.73;4.90;;;6.20;99.90;;;;;;5036313;28;20103;-62
2023/04/03 08:50:52;;;;;;;15.43;5.35;;;6.20;99.90;;;;;;5052836;28;20453;-63
2023/04/03 08:53:19;;;;;;;13.50;5.40;;;6.30;99.90;;;;;;5052318;28;20159;-62
2023/04/03 08:55:46;;;;;;;13.10;5.80;;;6.40;99.90;;;;;;5052192;28;20041;-63
2023/04/03 08:58:12;;;;;;;15.00;5.20;;;6.40;99.90;;;;;;5053369;28;20120;-64
2023/04/03 09:00:39;;;;;;;15.65;5.53;;;6.50;99.90;;;;;;5052361;28;20053;-63
2023/04/03 09:03:06;;;;;;;15.07;6.15;;;6.60;99.90;;;;;;5053109;28;20095;-63
2023/04/03 09:05:37;;;;;;;13.13;5.30;;;6.70;99.90;;;;;;5052143;28;20542;-63
2023/04/03 09:08:05;;;;;;;10.77;4.95;;;6.90;99.90;;;;;;5053052;28;20116;-64
2023/04/03 09:10:32;;;;;;;12.98;6.45;;;7.10;99.90;;;;;;5049106;28;20127;-63
2023/04/03 09:12:58;;;;;;;13.25;5.65;;;7.30;99.90;;;;;;5052879;28;20056;-63
2023/04/03 09:15:25;;;;;;;19.95;6.85;;;7.50;99.90;;;;;;5052354;28;20120;-63
2023/04/03 09:18:04;;;;;;;12.10;5.50;;;7.70;99.90;;;;;;5043092;28;20052;-64
2023/04/03 09:20:31;;;;;;;12.65;5.75;;;7.90;99.90;;;;;;5052547;28;20372;-63
2023/04/03 09:22:57;;;;;;;13.32;6.03;;;7.90;99.90;;;;;;5050685;28;20045;-63
2023/04/03 09:25:24;;;;;;;12.25;5.97;;;8.00;99.90;;;;;;5051855;28;20052;-64
2023/04/03 09:27:51;;;;;;;13.40;6.38;;;8.10;99.90;;;;;;5037598;28;20038;-63
2023/04/03 09:30:18;;;;;;;12.73;5.93;;;8.20;99.90;;;;;;5052595;28;20041;-63
2023/04/03 09:32:45;;;;;;;11.88;5.35;;;8.30;99.90;;;;;;5052443;28;20158;-64
2023/04/03 09:35:14;;;;;;;11.02;5.55;;;8.40;99.90;;;;;;5051452;28;20044;-64
2023/04/03 09:37:47;;;;;;;15.35;6.18;;;8.40;99.90;;;;;;5051395;28;20049;-63
2023/04/03 09:40:14;;;;;;;12.40;5.35;;;8.60;99.90;;;;;;5052374;28;20084;-63
2023/04/03 09:42:41;;;;;;;17.67;5.70;;;8.70;99.90;;;;;;5052441;28;20079;-63
2023/04/03 09:45:14;;;;;;;11.27;6.00;;;8.80;99.90;;;;;;5050523;28;20049;-64
2023/04/03 09:47:41;;;;;;;14.63;6.35;;;8.90;99.90;;;;;;5052319;28;20049;-63
2023/04/03 09:50:09;;;;;;;15.80;5.97;;;8.90;99.90;;;;;;5052313;28;20037;-63
2023/04/03 09:52:36;;;;;;;17.10;6.05;;;9.10;99.90;;;;;;5045835;28;20492;-64
2023/04/03 09:55:04;;;;;;;12.15;5.43;;;9.20;99.90;;;;;;5051597;28;20118;-63
2023/04/03 09:57:31;;;;;;;12.90;5.30;;;9.30;99.90;;;;;;5052484;28;20107;-63
2023/04/03 09:59:59;;;;;;;11.10;4.85;;;9.40;99.90;;;;;;5052574;28;20116;-63
2023/04/03 10:02:26;;;;;;;9.88;4.78;;;9.40;99.90;;;;;;5047475;28;20034;-63
2023/04/03 10:04:53;;;;;;;12.07;5.07;;;9.40;99.90;;;;;;5049645;28;20037;-64
2023/04/03 10:07:36;;;;;;;13.57;5.18;;;9.50;99.90;;;;;;5052175;28;20040;-63
2023/04/03 10:10:03;;;;;;;9.30;5.00;;;9.50;99.90;;;;;;5051925;28;20041;-63
2023/04/03 10:12:30;;;;;;;11.73;4.60;;;9.50;99.90;;;;;;5052090;28;20123;-64
2023/04/03 10:14:57;;;;;;;10.98;4.57;;;9.60;99.90;;;;;;5051103;28;20083;-64
2023/04/03 10:17:24;;;;;;;8.68;4.90;;;9.70;99.90;;;;;;5052286;28;20395;-68
2023/04/03 10:19:51;;;;;;;14.15;4.88;;;9.80;99.90;;;;;;5047121;28;20060;-64
2023/04/03 10:22:18;;;;;;;14.05;4.40;;;9.80;99.90;;;;;;5033184;28;20045;-64
2023/04/03 10:24:44;;;;;;;9.05;3.88;;;9.80;99.90;;;;;;5032795;28;20132;-63
2023/04/03 10:27:11;;;;;;;12.52;4.38;;;9.90;99.90;;;;;;5050745;28;20041;-63
2023/04/03 10:29:38;;;;;;;8.98;4.55;;;9.90;99.90;;;;;;5051850;28;20129;-64
2023/04/03 10:32:05;;;;;;;11.18;4.60;;;9.80;99.90;;;;;;5052029;28;20041;-64
2023/04/03 10:34:32;;;;;;;11.35;4.00;;;9.70;99.90;;;;;;5051874;28;20063;-64
2023/04/03 10:36:59;;;;;;;7.13;3.70;;;9.70;99.90;;;;;;5051836;28;20488;-66
2023/04/03 10:39:26;;;;;;;12.48;3.97;;;9.70;99.90;;;;;;5051612;28;20128;-63
2023/04/03 10:41:53;;;;;;;9.65;3.55;;;9.70;99.90;;;;;;5051928;28;20040;-65
2023/04/03 10:44:35;;;;;;;8.88;3.42;;;9.90;99.90;;;;;;5052253;28;20053;-63
2023/04/03 10:47:01;;;;;;;6.88;3.35;;;9.90;99.90;;;;;;5032727;28;20049;-64
2023/04/03 10:49:28;;;;;;;7.70;3.30;;;10.00;99.90;;;;;;5031983;28;20493;-63
2023/04/03 10:51:55;;;;;;;6.03;3.30;;;10.00;99.90;;;;;;5050632;28;20075;-63
2023/04/03 10:54:22;;;;;;;7.72;3.10;;;10.10;99.90;;;;;;5050504;28;20512;-64
2023/04/03 10:56:49;;;;;;;9.52;3.95;;;10.10;99.90;;;;;;5053763;28;20068;-64
2023/04/03 10:59:30;;;;;;;10.18;3.30;;;10.20;99.90;;;;;;5055266;28;20045;-63
2023/04/03 11:01:57;;;;;;;9.30;3.40;;;10.30;99.90;;;;;;5054328;28;20073;-63
2023/04/03 11:04:24;;;;;;;6.95;3.25;;;10.30;99.90;;;;;;5054073;28;20041;-65
2023/04/03 11:06:54;;;;;;;8.57;3.58;;;10.30;99.90;;;;;;5054385;28;20040;-64
2023/04/03 11:09:20;;;;;;;7.25;3.35;;;10.40;99.90;;;;;;5055041;28;20431;-63
2023/04/03 11:11:47;;;;;;;8.00;3.30;;;10.40;99.90;;;;;;5047594;28;20041;-63
2023/04/03 11:14:16;;;;;;;9.63;3.22;;;10.50;99.90;;;;;;5050742;28;20484;-64
2023/04/03 11:16:43;;;;;;;6.50;3.30;;;10.70;99.90;;;;;;5054649;28;20075;-63
2023/04/03 11:19:21;;;;;;;7.93;3.25;;;10.60;99.90;;;;;;5053901;28;20069;-62
2023/04/03 11:21:48;;;;;;;9.27;3.10;;;10.60;99.90;;;;;;5054789;28;20048;-60
2023/04/03 11:24:15;;;;;;;5.28;2.97;;;10.60;99.90;;;;;;5054221;28;20049;-60
2023/04/03 11:26:42;;;;;;;6.60;3.20;;;10.60;99.90;;;;;;5054810;28;20037;-62
2023/04/03 11:29:09;;;;;;;5.78;3.25;;;10.50;99.90;;;;;;5054073;28;20048;-61
2023/04/03 11:31:37;;;;;;;9.35;3.25;;;10.50;99.90;;;;;;5044369;28;20045;-63
2023/04/03 11:34:04;;;;;;;7.03;3.17;;;10.60;99.90;;;;;;5054955;28;20419;-61
2023/04/03 11:36:31;;;;;;;8.25;3.15;;;10.60;99.90;;;;;;5039112;28;20113;-60
2023/04/03 11:39:01;;;;;;;7.15;3.53;;;10.60;99.90;;;;;;5035707;28;20042;-64
2023/04/03 11:41:28;;;;;;;9.02;3.33;;;10.60;99.90;;;;;;5041342;28;20466;-63
2023/04/03 11:43:56;;;;;;;5.47;3.20;;;10.60;99.70;;;;;;5054470;28;20119;-65
2023/04/03 11:46:23;;;;;;;7.82;3.03;;;10.50;99.60;;;;;;5051828;28;20439;-65
2023/04/03 11:48:49;;;;;;;6.80;3.13;;;10.40;98.80;;;;;;5035397;28;20121;-64
2023/04/03 11:51:17;;;;;;;5.93;3.05;;;10.40;99.10;;;;;;5038528;28;20553;-60
2023/04/03 11:53:44;;;;;;;5.93;2.90;;;10.30;99.80;;;;;;5039724;28;20042;-60
2023/04/03 11:56:11;;;;;;;4.60;2.63;;;10.40;99.70;;;;;;5035331;28;20042;-62
2023/04/03 11:58:38;;;;;;;6.95;2.40;;;10.30;99.20;;;;;;5054371;28;20065;-61
2023/04/03 12:01:04;;;;;;;5.80;2.88;;;10.20;99.20;;;;;;5054375;28;20064;-61
2023/04/03 12:03:31;;;;;;;8.80;2.80;;;10.10;99.00;;;;;;5053525;28;20041;-62
2023/04/03 12:05:58;;;;;;;6.53;2.70;;;10.10;99.60;;;;;;5054361;28;20116;-62
2023/04/03 12:08:25;;;;;;;5.93;2.97;;;10.10;99.70;;;;;;5052983;28;20506;-62
2023/04/03 12:10:52;;;;;;;5.80;3.20;;;10.10;99.20;;;;;;5054246;28;20075;-61
2023/04/03 12:13:19;;;;;;;5.47;2.90;;;10.10;99.10;;;;;;5054098;28;20044;-61
2023/04/03 12:15:46;;;;;;;6.82;2.90;;;10.10;99.10;;;;;;5053077;28;20087;-62
2023/04/03 12:18:13;;;;;;;5.22;2.88;;;10.10;99.90;;;;;;5052737;28;20064;-62
2023/04/03 12:20:40;;;;;;;5.55;3.20;;;10.10;99.30;;;;;;5054144;28;20128;-62
2023/04/03 12:23:07;;;;;;;6.47;3.30;;;10.10;99.50;;;;;;5052874;28;20447;-63
2023/04/03 12:25:34;;;;;;;8.10;3.63;;;10.10;99.50;;;;;;5053758;28;20435;-63
2023/04/03 12:28:01;;;;;;;7.25;3.58;;;10.10;99.30;;;;;;5048170;28;20435;-61
2023/04/03 12:30:28;;;;;;;6.22;3.65;;;10.10;99.20;;;;;;5034863;28;20042;-63
2023/04/03 12:32:55;;;;;;;6.60;3.50;;;10.10;99.80;;;;;;5053677;28;20052;-62
2023/04/03 12:35:37;;;;;;;7.28;3.35;;;10.20;99.60;;;;;;5052652;28;20073;-65
2023/04/03 12:38:05;;;;;;;5.85;3.75;;;10.20;98.80;;;;;;5053457;28;20052;-63
2023/04/03 12:40:31;;;;;;;7.03;3.45;;;10.20;99.30;;;;;;5053656;28;20361;-61
2023/04/03 12:42:58;;;;;;;8.05;3.58;;;10.20;99.60;;;;;;5052767;28;20045;-62
2023/04/03 12:45:26;;;;;;;5.53;2.97;;;10.20;98.70;;;;;;5045413;28;20439;-63
2023/04/03 12:47:53;;;;;;;7.57;3.35;;;10.10;98.10;;;;;;5044488;28;20047;-63
2023/04/03 12:50:21;;;;;;;5.30;2.70;;;10.10;98.20;;;;;;5053149;28;20090;-63